createdAt,value
2022-08-05T00:00:18.678Z,3.20
2022-08-05T00:02:51.452Z,3.03
2022-08-05T00:06:01.636Z,2.75
2022-08-05T00:08:32.957Z,2.50
2022-08-05T00:11:00.301Z,2.42
2022-08-05T00:13:38.532Z,2.63
2022-08-05T00:16:10.906Z,2.40
2022-08-05T00:18:41.146Z,2.90
2022-08-05T00:21:09.877Z,2.50
2022-08-05T00:23:46.968Z,2.28
2022-08-05T00:28:50.587Z,2.60
2022-08-05T00:31:54.148Z,2.70
2022-08-05T00:34:54.424Z,2.70
2022-08-05T00:37:10.347Z,2.55
2022-08-05T00:39:57.309Z,2.90
2022-08-05T00:42:40.245Z,2.83
2022-08-05T00:45:11.849Z,2.53
2022-08-05T00:47:56.639Z,2.60
2022-08-05T00:50:25.839Z,2.30
2022-08-05T00:52:55.032Z,2.90
2022-08-05T00:55:23.057Z,3.00
2022-08-05T00:58:01.671Z,3.00
2022-08-05T01:00:32.291Z,4.68
2022-08-05T01:03:01.477Z,2.70
2022-08-05T01:05:35.268Z,2.50
2022-08-05T01:08:41.106Z,2.33
2022-08-05T01:10:55.113Z,2.30
2022-08-05T01:13:27.217Z,2.72
2022-08-05T01:16:27.014Z,2.40
2022-08-05T01:19:01.362Z,2.20
2022-08-05T01:22:04.059Z,2.50
2022-08-05T01:25:13.748Z,2.22
2022-08-05T01:27:50.693Z,2.20
2022-08-05T01:30:34.777Z,2.20
2022-08-05T01:33:08.264Z,2.53
2022-08-05T01:35:52.173Z,2.42
2022-08-05T01:38:24.831Z,2.38
2022-08-05T01:40:59.117Z,2.00
2022-08-05T01:43:28.502Z,2.60
2022-08-05T01:45:57.184Z,2.20
2022-08-05T01:48:30.709Z,2.08
2022-08-05T01:51:04.637Z,2.00
2022-08-05T01:53:57.684Z,2.13
2022-08-05T01:58:10.214Z,2.33
2022-08-05T01:59:23.971Z,2.25
2022-08-05T02:01:57.877Z,2.47
2022-08-05T02:04:29.983Z,2.23
2022-08-05T02:06:59.203Z,2.20
2022-08-05T02:09:27.191Z,2.10
2022-08-05T02:11:59.926Z,2.03
2022-08-05T02:14:34.683Z,1.92
2022-08-05T02:17:29.955Z,2.10
2022-08-05T02:20:06.963Z,2.50
2022-08-05T02:22:42.381Z,2.00
2022-08-05T02:25:17.894Z,2.10
2022-08-05T02:27:58.319Z,2.17
2022-08-05T02:30:38.871Z,2.30
2022-08-05T02:33:24.481Z,2.33
2022-08-05T02:36:05.482Z,2.65
2022-08-05T02:38:35.348Z,2.67
2022-08-05T02:41:06.597Z,3.05
2022-08-05T02:44:02.486Z,2.65
2022-08-05T02:46:36.235Z,3.05
2022-08-05T02:49:21.913Z,3.00
2022-08-05T02:52:03.965Z,2.60
2022-08-05T02:54:36.971Z,2.58
2022-08-05T02:58:09.190Z,2.47
2022-08-05T02:59:59.448Z,2.72
2022-08-05T03:02:34.723Z,2.50
2022-08-05T03:05:04.404Z,2.30
2022-08-05T03:08:00.526Z,2.50
2022-08-05T03:10:24.563Z,2.60
2022-08-05T03:12:53.261Z,2.72
2022-08-05T03:15:23.363Z,2.72
2022-08-05T03:17:54.086Z,2.50
2022-08-05T03:20:24.479Z,2.50
2022-08-05T03:22:55.269Z,2.20
2022-08-05T03:25:32.587Z,2.30
2022-08-05T03:28:14.786Z,2.20
2022-08-05T03:30:50.971Z,2.50
2022-08-05T03:33:22.898Z,2.80
2022-08-05T03:36:00.193Z,2.50
2022-08-05T03:38:33.269Z,2.45
2022-08-05T03:41:08.356Z,2.70
2022-08-05T03:44:09.122Z,2.90
2022-08-05T03:46:26.794Z,3.35
2022-08-05T03:48:57.847Z,3.30
2022-08-05T03:52:39.291Z,3.30
2022-08-05T03:55:52.149Z,2.97
2022-08-05T03:57:42.492Z,2.50
2022-08-05T04:00:16.457Z,2.60
2022-08-05T04:05:33.675Z,3.25
2022-08-05T04:08:05.753Z,4.75
2022-08-05T04:10:50.542Z,11.25
2022-08-05T04:13:18.842Z,11.98
2022-08-05T04:16:03.132Z,9.45
2022-08-05T04:18:34.397Z,5.28
2022-08-05T04:21:04.267Z,4.00
2022-08-05T04:24:04.765Z,2.90
2022-08-05T04:26:20.587Z,2.80
2022-08-05T04:28:51.101Z,2.30
2022-08-05T04:31:20.607Z,2.17
2022-08-05T04:34:18.048Z,2.50
2022-08-05T04:36:45.437Z,2.30
2022-08-05T04:39:17.174Z,2.53
2022-08-05T04:41:45.938Z,2.55
2022-08-05T04:44:16.257Z,3.05
2022-08-05T04:47:09.688Z,3.95
2022-08-05T04:50:01.445Z,8.07
2022-08-05T04:52:28.938Z,3.03
2022-08-05T04:54:57.050Z,3.25
2022-08-05T04:57:28.937Z,3.40
2022-08-05T04:59:58.452Z,3.30
2022-08-05T05:02:36.819Z,2.80
2022-08-05T05:05:17.022Z,3.03
2022-08-05T05:07:56.087Z,2.83
2022-08-05T05:10:25.807Z,3.45
2022-08-05T05:12:57.266Z,2.95
2022-08-05T05:15:59.391Z,2.50
2022-08-05T05:18:31.113Z,2.63
2022-08-05T05:21:01.439Z,2.30
2022-08-05T05:24:02.078Z,2.38
2022-08-05T05:26:16.192Z,2.42
2022-08-05T05:28:45.038Z,2.40
2022-08-05T05:31:12.975Z,2.30
2022-08-05T05:33:58.807Z,2.10
2022-08-05T05:36:28.414Z,1.90
2022-08-05T05:38:57.497Z,2.35
2022-08-05T05:41:25.074Z,2.50
2022-08-05T05:44:36.105Z,2.10
2022-08-05T05:46:54.944Z,2.30
2022-08-05T05:49:25.331Z,2.30
2022-08-05T05:51:53.556Z,2.17
2022-08-05T05:54:21.171Z,2.38
2022-08-05T05:56:48.725Z,2.20
2022-08-05T05:59:17.539Z,2.60
2022-08-05T06:01:57.358Z,2.33
2022-08-05T06:04:25.617Z,2.30
2022-08-05T06:06:52.956Z,2.33
2022-08-05T06:09:26.517Z,2.20
2022-08-05T06:12:09.536Z,2.00
2022-08-05T06:14:37.178Z,2.40
2022-08-05T06:17:24.379Z,2.05
2022-08-05T06:19:57.093Z,2.25
2022-08-05T06:22:33.307Z,2.30
2022-08-05T06:25:24.895Z,2.38
2022-08-05T06:28:10.540Z,2.13
2022-08-05T06:30:39.079Z,2.13
2022-08-05T06:33:09.909Z,2.58
2022-08-05T06:36:07.620Z,2.35
2022-08-05T06:38:36.437Z,2.40
2022-08-05T06:41:05.202Z,2.08
2022-08-05T06:43:58.550Z,2.13
2022-08-05T06:46:23.853Z,2.75
2022-08-05T06:48:59.740Z,2.60
2022-08-05T06:51:30.947Z,2.17
2022-08-05T06:54:02.685Z,2.60
2022-08-05T06:56:34.144Z,2.22
2022-08-05T06:59:03.505Z,2.22
2022-08-05T07:01:36.132Z,2.50
2022-08-05T07:04:04.270Z,2.50
2022-08-05T07:06:32.226Z,2.42
2022-08-05T07:09:04.278Z,2.47
2022-08-05T07:11:37.340Z,2.42
2022-08-05T07:14:29.584Z,2.40
2022-08-05T07:17:58.198Z,2.42
2022-08-05T07:22:39.079Z,2.45
2022-08-05T07:25:23.869Z,2.42
2022-08-05T07:27:57.063Z,2.58
2022-08-05T07:30:31.905Z,2.30
2022-08-05T07:33:09.491Z,2.38
2022-08-05T07:36:03.567Z,2.38
2022-08-05T07:38:34.149Z,2.50
2022-08-05T07:42:08.921Z,2.47
2022-08-05T07:43:58.678Z,2.00
2022-08-05T07:46:28.050Z,2.38
2022-08-05T07:49:02.502Z,2.53
2022-08-05T07:51:40.627Z,2.40
2022-08-05T07:54:18.727Z,2.45
2022-08-05T07:57:13.611Z,2.17
2022-08-05T07:59:40.516Z,2.25
2022-08-05T08:02:16.565Z,2.30
2022-08-05T08:04:48.396Z,2.30
2022-08-05T08:07:22.224Z,2.15
2022-08-05T08:09:52.356Z,1.77
2022-08-05T08:12:36.931Z,2.10
2022-08-05T08:15:14.301Z,2.40
2022-08-05T08:17:52.475Z,2.22
2022-08-05T08:20:59.981Z,1.90
2022-08-05T08:23:11.691Z,1.90
2022-08-05T08:25:59.945Z,2.42
2022-08-05T08:28:36.831Z,2.25
2022-08-05T08:31:06.728Z,2.33
2022-08-05T08:33:38.144Z,1.95
2022-08-05T08:38:56.834Z,2.10
2022-08-05T08:41:52.412Z,2.13
2022-08-05T08:45:22.401Z,2.10
2022-08-05T08:47:21.620Z,2.13
2022-08-05T08:50:22.802Z,2.22
2022-08-05T08:52:52.894Z,2.40
2022-08-05T08:55:31.941Z,2.00
2022-08-05T08:58:10.237Z,2.00
2022-08-05T09:00:42.359Z,2.55
2022-08-05T09:03:11.645Z,2.22
2022-08-05T09:06:08.747Z,2.00
2022-08-05T09:08:30.091Z,2.10
2022-08-05T09:10:58.463Z,2.20
2022-08-05T09:13:31.883Z,2.20
2022-08-05T09:16:14.634Z,1.98
2022-08-05T09:18:44.742Z,2.30
2022-08-05T09:21:20.837Z,2.42
2022-08-05T09:24:05.024Z,2.30
2022-08-05T09:26:34.150Z,2.15
2022-08-05T09:29:08.866Z,2.10
2022-08-05T09:32:41.064Z,2.45
2022-08-05T09:34:26.023Z,3.70
2022-08-05T09:36:56.245Z,2.60
2022-08-05T09:39:39.332Z,2.20
2022-08-05T09:42:23.258Z,1.92
2022-08-05T09:44:56.310Z,2.17
2022-08-05T09:50:37.753Z,2.10
2022-08-05T09:53:06.395Z,2.08
2022-08-05T09:55:56.506Z,2.00
2022-08-05T09:58:25.108Z,2.00
2022-08-05T10:01:01.619Z,2.00
2022-08-05T10:03:58.893Z,2.00
2022-08-05T10:06:28.490Z,2.40
2022-08-05T10:08:57.085Z,2.00
2022-08-05T10:11:31.424Z,2.30
2022-08-05T10:14:32.152Z,1.90
2022-08-05T10:17:38.078Z,2.05
2022-08-05T10:20:10.053Z,2.25
2022-08-05T10:22:48.580Z,2.10
2022-08-05T10:25:19.519Z,2.20
2022-08-05T10:28:13.167Z,2.63
2022-08-05T10:32:49.510Z,1.80
2022-08-05T10:33:29.073Z,1.80
2022-08-05T10:35:59.955Z,1.80
2022-08-05T10:38:29.757Z,2.20
2022-08-05T10:41:23.422Z,1.80
2022-08-05T10:44:10.294Z,1.85
2022-08-05T10:46:50.567Z,1.80
2022-08-05T10:49:18.896Z,1.83
2022-08-05T10:52:02.363Z,2.00
2022-08-05T10:54:56.773Z,1.88
2022-08-05T10:57:31.807Z,1.88
2022-08-05T11:00:22.675Z,2.03
2022-08-05T11:03:24.550Z,1.70
2022-08-05T11:06:15.473Z,1.95
2022-08-05T11:09:13.178Z,1.70
2022-08-05T11:11:53.386Z,2.00
2022-08-05T11:18:00.020Z,2.20
2022-08-05T11:20:41.433Z,2.50
2022-08-05T11:23:49.831Z,1.92
2022-08-05T11:26:28.671Z,1.80
2022-08-05T11:29:12.007Z,2.03
2022-08-05T11:31:56.561Z,2.20
2022-08-05T11:34:51.765Z,1.80
2022-08-05T11:38:30.793Z,1.85
2022-08-05T11:41:34.480Z,1.70
2022-08-05T11:44:05.606Z,1.80
2022-08-05T11:47:09.488Z,1.85
2022-08-05T11:49:42.746Z,1.70
2022-08-05T11:52:11.941Z,1.77
2022-08-05T11:54:41.571Z,1.90
2022-08-05T11:57:24.785Z,1.92
2022-08-05T11:59:53.341Z,1.75
2022-08-05T12:02:32.529Z,1.80
2022-08-05T12:05:07.683Z,1.80
2022-08-05T12:08:07.814Z,1.88
2022-08-05T12:10:43.691Z,4.93
2022-08-05T12:13:28.130Z,5.07
2022-08-05T12:16:14.840Z,3.03
2022-08-05T12:18:52.261Z,2.10
2022-08-05T12:21:29.841Z,1.90
2022-08-05T12:24:04.459Z,2.10
2022-08-05T12:26:43.855Z,1.88
2022-08-05T12:29:37.946Z,1.90
2022-08-05T12:32:07.468Z,1.98
2022-08-05T12:34:38.163Z,1.88
2022-08-05T12:37:21.479Z,1.90
2022-08-05T12:39:51.922Z,2.03
2022-08-05T12:42:25.198Z,1.90
2022-08-05T12:44:52.856Z,2.30
2022-08-05T12:47:31.201Z,1.48
2022-08-05T12:50:03.140Z,2.40
2022-08-05T12:52:39.663Z,1.80
2022-08-05T12:55:25.421Z,1.90
2022-08-05T12:58:48.551Z,1.95
2022-08-05T13:02:00.488Z,1.90
2022-08-05T13:03:43.165Z,1.90
2022-08-05T13:06:16.047Z,2.20
2022-08-05T13:08:51.847Z,2.10
2022-08-05T13:11:25.656Z,1.88
2022-08-05T13:14:20.443Z,2.22
2022-08-05T13:17:07.377Z,4.13
2022-08-05T13:19:40.272Z,2.10
2022-08-05T13:22:27.690Z,1.90
2022-08-05T13:25:05.031Z,2.47
2022-08-05T13:27:51.679Z,2.22
2022-08-05T13:30:32.752Z,2.20
2022-08-05T13:33:03.863Z,2.20
2022-08-05T13:35:47.210Z,1.98
2022-08-05T13:38:30.482Z,2.20
2022-08-05T13:41:00.090Z,2.50
2022-08-05T13:43:45.098Z,2.33
2022-08-05T13:46:16.302Z,2.55
2022-08-05T13:48:58.518Z,2.60
2022-08-05T13:51:40.162Z,2.53
2022-08-05T13:54:12.002Z,2.60
2022-08-05T13:56:45.229Z,2.58
2022-08-05T13:59:24.468Z,2.47
2022-08-05T14:01:57.588Z,2.60
2022-08-05T14:04:50.187Z,2.40
2022-08-05T14:07:55.536Z,2.75
2022-08-05T14:10:18.618Z,2.75
2022-08-05T14:12:55.514Z,2.67
2022-08-05T14:16:04.719Z,2.70
2022-08-05T14:18:17.553Z,2.95
2022-08-05T14:20:49.178Z,3.03
2022-08-05T14:23:25.900Z,2.70
2022-08-05T14:25:58.542Z,3.37
2022-08-05T14:28:28.289Z,2.83
2022-08-05T14:31:01.565Z,2.90
2022-08-05T14:33:56.655Z,2.92
2022-08-05T14:36:21.512Z,3.00
2022-08-05T14:38:50.221Z,2.90
2022-08-05T14:41:17.859Z,3.25
2022-08-05T14:43:58.863Z,3.03
2022-08-05T14:46:31.142Z,3.28
2022-08-05T14:49:06.938Z,3.20
2022-08-05T14:51:42.787Z,2.95
2022-08-05T14:54:28.140Z,3.38
2022-08-05T14:56:58.167Z,3.42
2022-08-05T14:59:29.209Z,3.30
2022-08-05T15:01:58.073Z,2.95
2022-08-05T15:04:27.420Z,3.13
2022-08-05T15:06:56.919Z,3.08
2022-08-05T15:09:52.725Z,3.05
2022-08-05T15:12:16.861Z,3.10
2022-08-05T15:14:49.828Z,3.17
2022-08-05T15:17:47.780Z,3.10
2022-08-05T15:20:17.206Z,5.25
2022-08-05T15:22:52.372Z,3.20
2022-08-05T15:25:51.060Z,3.47
2022-08-05T15:28:13.351Z,3.80
2022-08-05T15:30:43.781Z,3.72
2022-08-05T15:34:04.495Z,3.50
2022-08-05T15:36:03.435Z,4.05
2022-08-05T15:38:40.880Z,3.60
2022-08-05T15:41:22.859Z,3.95
2022-08-05T15:43:54.612Z,3.28
2022-08-05T15:46:24.884Z,3.50
2022-08-05T15:49:00.716Z,3.50
2022-08-05T15:52:12.665Z,3.33
2022-08-05T15:54:34.927Z,3.53
2022-08-05T15:57:02.974Z,3.70
2022-08-05T15:59:35.591Z,3.55
2022-08-05T16:02:03.030Z,3.58
2022-08-05T16:04:37.363Z,3.53
2022-08-05T16:07:06.555Z,4.00
2022-08-05T16:09:41.650Z,3.67
2022-08-05T16:12:09.856Z,3.53
2022-08-05T16:14:38.936Z,3.65
2022-08-05T16:17:06.738Z,3.60
2022-08-05T16:20:04.525Z,3.85
2022-08-05T16:22:27.433Z,3.47
2022-08-05T16:24:55.333Z,3.70
2022-08-05T16:27:32.166Z,3.80
2022-08-05T16:30:23.258Z,3.92
2022-08-05T16:32:54.270Z,3.75
2022-08-05T16:35:27.831Z,3.97
2022-08-05T16:38:02.276Z,4.25
2022-08-05T16:40:47.703Z,4.38
2022-08-05T16:43:19.962Z,4.43
2022-08-05T16:46:06.811Z,4.10
2022-08-05T16:48:35.902Z,4.05
2022-08-05T16:51:09.362Z,4.30
2022-08-05T16:54:04.304Z,4.43
2022-08-05T16:56:28.057Z,4.65
2022-08-05T16:58:56.176Z,4.25
2022-08-05T17:01:24.876Z,5.03
2022-08-05T17:03:52.453Z,4.68
2022-08-05T17:06:20.674Z,4.60
2022-08-05T17:08:54.465Z,5.03
2022-08-05T17:11:25.431Z,5.22
2022-08-05T17:14:00.529Z,5.15
2022-08-05T17:16:36.473Z,5.93
2022-08-05T17:19:07.846Z,5.45
2022-08-05T17:21:37.635Z,6.15
2022-08-05T17:24:19.581Z,5.78
2022-08-05T17:26:58.113Z,5.80
2022-08-05T17:29:33.111Z,5.70
2022-08-05T17:32:01.775Z,5.90
2022-08-05T17:34:29.771Z,6.13
2022-08-05T17:36:57.918Z,6.18
2022-08-05T17:39:34.051Z,6.25
2022-08-05T17:42:19.056Z,6.60
2022-08-05T17:44:51.126Z,6.20
2022-08-05T17:47:22.427Z,6.35
2022-08-05T17:50:03.788Z,6.15
2022-08-05T17:52:33.228Z,6.22
2022-08-05T17:55:02.992Z,6.43
2022-08-05T17:57:31.379Z,6.47
2022-08-05T18:00:05.245Z,6.47
2022-08-05T18:02:34.074Z,6.50
2022-08-05T18:05:06.427Z,6.80
2022-08-05T18:07:42.185Z,6.57
2022-08-05T18:10:20.450Z,7.07
2022-08-05T18:12:49.698Z,7.03
2022-08-05T18:15:17.178Z,7.38
2022-08-05T18:18:01.597Z,6.85
2022-08-05T18:20:32.622Z,7.32
2022-08-05T18:23:09.374Z,8.02
2022-08-05T18:25:44.737Z,7.72
2022-08-05T18:28:16.370Z,7.82
2022-08-05T18:30:52.674Z,7.93
2022-08-05T18:33:23.167Z,8.25
2022-08-05T18:36:03.320Z,7.72
2022-08-05T18:38:36.182Z,7.85
2022-08-05T18:41:55.982Z,7.97
2022-08-05T18:43:53.357Z,7.93
2022-08-05T18:46:21.817Z,8.20
2022-08-05T18:48:54.921Z,8.32
2022-08-05T18:52:02.739Z,8.40
2022-08-05T18:54:31.887Z,8.20
2022-08-05T18:57:02.774Z,7.78
2022-08-05T18:59:42.873Z,7.88
2022-08-05T19:02:37.996Z,8.40
2022-08-05T19:06:06.080Z,8.30
2022-08-05T19:07:56.579Z,10.65
2022-08-05T19:10:27.848Z,9.55
2022-08-05T19:12:57.100Z,8.85
2022-08-05T19:15:56.731Z,8.70
2022-08-05T19:18:22.045Z,8.45
2022-08-05T19:20:53.995Z,9.02
2022-08-05T19:24:04.970Z,11.35
2022-08-05T19:26:09.529Z,14.05
2022-08-05T19:28:43.322Z,12.68
2022-08-05T19:31:13.185Z,10.20
2022-08-05T19:33:48.229Z,9.77
2022-08-05T19:36:29.369Z,9.55
2022-08-05T19:39:01.086Z,8.95
2022-08-05T19:41:58.197Z,10.40
2022-08-05T19:44:18.355Z,10.38
2022-08-05T19:46:46.284Z,9.63
2022-08-05T19:49:16.837Z,9.43
2022-08-05T19:52:09.435Z,9.32
2022-08-05T19:54:36.878Z,9.88
2022-08-05T19:57:06.406Z,9.85
2022-08-05T19:59:59.369Z,11.07
2022-08-05T20:02:24.431Z,11.25
2022-08-05T20:04:55.600Z,10.93
2022-08-05T20:07:46.304Z,11.23
2022-08-05T20:10:15.113Z,10.75
2022-08-05T20:12:47.578Z,11.10
2022-08-05T20:15:23.119Z,11.13
2022-08-05T20:18:10.288Z,10.13
2022-08-05T20:20:56.752Z,9.50
2022-08-05T20:23:39.634Z,9.40
2022-08-05T20:26:16.524Z,9.63
2022-08-05T20:28:51.147Z,9.30
2022-08-05T20:31:28.341Z,9.18
2022-08-05T20:34:09.432Z,9.02
2022-08-05T20:36:37.018Z,9.23
2022-08-05T20:39:06.660Z,8.88
2022-08-05T20:41:44.190Z,9.25
2022-08-05T20:44:19.300Z,9.48
2022-08-05T20:46:59.467Z,9.50
2022-08-05T20:49:27.539Z,9.55
2022-08-05T20:51:57.514Z,9.32
2022-08-05T20:54:59.591Z,9.55
2022-08-05T20:57:41.894Z,9.75
2022-08-05T21:00:20.945Z,9.07
2022-08-05T21:02:56.116Z,9.38
2022-08-05T21:05:24.573Z,9.18
2022-08-05T21:07:52.543Z,9.25
2022-08-05T21:10:20.805Z,9.57
2022-08-05T21:12:57.695Z,10.77
2022-08-05T21:15:35.676Z,13.90
2022-08-05T21:18:03.612Z,14.60
2022-08-05T21:20:33.208Z,13.10
2022-08-05T21:23:01.468Z,12.10
2022-08-05T21:25:34.077Z,11.60
2022-08-05T21:28:03.066Z,12.40
2022-08-05T21:30:31.792Z,11.50
2022-08-05T21:33:01.858Z,12.70
2022-08-05T21:35:43.686Z,11.73
2022-08-05T21:38:17.768Z,11.32
2022-08-05T21:40:45.231Z,10.98
2022-08-05T21:43:24.162Z,10.48
2022-08-05T21:45:57.752Z,10.13
2022-08-05T21:48:29.142Z,9.52
2022-08-05T21:50:59.246Z,9.40
2022-08-05T21:53:27.237Z,9.48
2022-08-05T21:56:06.191Z,10.25
2022-08-05T21:58:56.959Z,10.02
2022-08-05T22:01:25.650Z,9.27
2022-08-05T22:03:53.803Z,9.30
2022-08-05T22:06:34.777Z,8.90
2022-08-05T22:09:13.955Z,9.27
2022-08-05T22:11:43.615Z,10.02
2022-08-05T22:14:33.672Z,9.27
2022-08-05T22:17:06.726Z,8.73
2022-08-05T22:20:00.644Z,9.35
2022-08-05T22:22:27.676Z,9.07
2022-08-05T22:25:27.544Z,9.15
2022-08-05T22:28:10.362Z,9.98
2022-08-05T22:30:55.345Z,9.52
2022-08-05T22:33:57.574Z,8.85
2022-08-05T22:36:15.269Z,9.20
2022-08-05T22:38:48.105Z,9.07
2022-08-05T22:44:04.242Z,9.27
2022-08-05T22:46:31.813Z,8.70
2022-08-05T22:48:59.891Z,9.38
2022-08-05T22:52:02.531Z,9.63
2022-08-05T22:54:15.002Z,9.50
2022-08-05T22:56:42.833Z,9.60
2022-08-05T22:59:45.131Z,9.50
2022-08-05T23:02:05.489Z,10.02
2022-08-05T23:04:34.064Z,9.75
2022-08-05T23:07:01.953Z,9.50
2022-08-05T23:09:58.230Z,9.95
2022-08-05T23:12:18.231Z,9.88
2022-08-05T23:14:45.859Z,9.43
2022-08-05T23:17:32.818Z,9.30
2022-08-05T23:20:06.476Z,9.45
2022-08-05T23:22:47.577Z,10.18
2022-08-05T23:25:52.671Z,9.85
2022-08-05T23:28:06.985Z,9.43
2022-08-05T23:30:40.044Z,9.60
2022-08-05T23:33:22.110Z,9.95
2022-08-05T23:35:56.040Z,9.60
2022-08-05T23:38:26.187Z,9.80
2022-08-05T23:40:54.385Z,9.70
2022-08-05T23:43:25.245Z,9.85
2022-08-05T23:46:19.839Z,10.02
2022-08-05T23:49:00.512Z,9.73
2022-08-05T23:51:55.472Z,10.18
2022-08-05T23:54:36.325Z,9.27
2022-08-05T23:57:06.255Z,10.50
